Ana Sayfa
METAR-TAF:

METAR-TAF

Havaalanları :

Schleswig-Jagel, Almanya

Enlem: 54-28N, Boylam: 009-31E, yükseklik: 22 m

Güncel hava durumu gözlemi

Rapor saat 18:20 UTC de 1 saat ve 1 dakika önce yapıldı.
Rüzgar doğu/güneydoğudan 12 kt
Sıcaklık 1°C
Nem 93%
Basınç 999 hPa
Görüş mesafesi: 2700 m

METAR: ETNS 241820Z AUTO 12012KT 2700 // ////// 01/00 Q0999 ///

Saat: 20:21 (19:21 UTC)


TAF: eksik

4.000'den fazla havaalanı için hava durumu gözlemleri ve tahminleri (METAR ve TAF raporları).

Kullanılabilir istasyonlar harita üzerinde sarı ve kırmızı noktalarla gösterilir.

İstasyonun adını görmek için fareyi noktanın üzerinde gezdirin.

Sonrasında hava gözlem ve tahminlerini görmek için tıklayın.

Haritayı değiştirmek için: yaklaştırmak için siyah artı işaretli yeşil düğmeye ve uzaklaştırmak için de eksi işaretli düğmeye hızla tıklayın; bitişik haritalar için yeşil okları kullanın.


METAR-TAF: